sensor_id;sensor_type;location;lat;lon;timestamp;pressure;altitude;pressure_sealevel;temperature;humidity
8160;BME280;27404;52.398;9.646;2022-07-21T00:01:47;100985.75;;;22.67;61.92
8160;BME280;27404;52.398;9.646;2022-07-21T00:04:13;100972.44;;;22.64;62.16
8160;BME280;27404;52.398;9.646;2022-07-21T00:06:41;100961.69;;;22.57;62.69
8160;BME280;27404;52.398;9.646;2022-07-21T00:09:07;100949.72;;;22.43;64.70
8160;BME280;27404;52.398;9.646;2022-07-21T00:11:32;100932.69;;;22.30;66.03
8160;BME280;27404;52.398;9.646;2022-07-21T00:13:57;100924.09;;;22.27;66.55
8160;BME280;27404;52.398;9.646;2022-07-21T00:16:23;100933.19;;;22.32;66.51
8160;BME280;27404;52.398;9.646;2022-07-21T00:18:49;100927.41;;;22.29;67.05
8160;BME280;27404;52.398;9.646;2022-07-21T00:21:14;100912.56;;;22.33;67.13
8160;BME280;27404;52.398;9.646;2022-07-21T00:23:40;100898.94;;;22.32;67.30
8160;BME280;27404;52.398;9.646;2022-07-21T00:26:05;100899.03;;;22.27;67.75
8160;BME280;27404;52.398;9.646;2022-07-21T00:28:31;100911.22;;;22.31;68.55
8160;BME280;27404;52.398;9.646;2022-07-21T00:30:56;100917.00;;;22.34;68.46
8160;BME280;27404;52.398;9.646;2022-07-21T00:33:21;100920.50;;;22.26;69.74
8160;BME280;27404;52.398;9.646;2022-07-21T00:35:47;100906.97;;;22.19;69.88
8160;BME280;27404;52.398;9.646;2022-07-21T00:38:13;100905.75;;;22.12;70.64
8160;BME280;27404;52.398;9.646;2022-07-21T00:40:39;100908.13;;;22.18;70.63
8160;BME280;27404;52.398;9.646;2022-07-21T00:43:04;100917.09;;;22.15;70.96
8160;BME280;27404;52.398;9.646;2022-07-21T00:45:30;100912.66;;;22.14;71.35
8160;BME280;27404;52.398;9.646;2022-07-21T00:47:55;100916.34;;;22.10;71.90
8160;BME280;27404;52.398;9.646;2022-07-21T00:50:21;100921.72;;;22.06;72.30
8160;BME280;27404;52.398;9.646;2022-07-21T00:52:47;100931.81;;;22.02;72.83
8160;BME280;27404;52.398;9.646;2022-07-21T00:55:15;100937.47;;;21.97;73.60
8160;BME280;27404;52.398;9.646;2022-07-21T00:57:42;100931.81;;;22.02;74.19
8160;BME280;27404;52.398;9.646;2022-07-21T01:00:11;100944.59;;;22.03;74.53
8160;BME280;27404;52.398;9.646;2022-07-21T01:02:38;100951.22;;;22.07;79.02
8160;BME280;27404;52.398;9.646;2022-07-21T01:05:08;100943.84;;;21.97;84.73
8160;BME280;27404;52.398;9.646;2022-07-21T01:07:39;100947.78;;;21.96;87.93
8160;BME280;27404;52.398;9.646;2022-07-21T01:10:05;100940.63;;;21.90;91.74
8160;BME280;27404;52.398;9.646;2022-07-21T01:12:31;100932.19;;;21.81;93.65
8160;BME280;27404;52.398;9.646;2022-07-21T01:14:57;100935.88;;;21.77;95.22
8160;BME280;27404;52.398;9.646;2022-07-21T01:17:23;100935.38;;;21.74;95.61
8160;BME280;27404;52.398;9.646;2022-07-21T01:19:49;100937.31;;;21.74;96.21
8160;BME280;27404;52.398;9.646;2022-07-21T01:22:15;100932.75;;;21.64;97.14
8160;BME280;27404;52.398;9.646;2022-07-21T01:24:41;100928.88;;;21.60;97.18
8160;BME280;27404;52.398;9.646;2022-07-21T01:27:06;100929.44;;;21.62;97.29
8160;BME280;27404;52.398;9.646;2022-07-21T01:29:31;100924.53;;;21.54;97.78
8160;BME280;27404;52.398;9.646;2022-07-21T01:31:57;100923.69;;;21.53;98.32
8160;BME280;27404;52.398;9.646;2022-07-21T01:34:22;100917.94;;;21.50;98.52
8160;BME280;27404;52.398;9.646;2022-07-21T01:36:48;100895.56;;;21.41;100.00
8160;BME280;27404;52.398;9.646;2022-07-21T01:39:14;100896.06;;;21.43;100.00
8160;BME280;27404;52.398;9.646;2022-07-21T01:41:58;100896.97;;;21.38;100.00
8160;BME280;27404;52.398;9.646;2022-07-21T01:44:24;100870.88;;;21.34;100.00
8160;BME280;27404;52.398;9.646;2022-07-21T01:46:51;100868.94;;;21.35;100.00
8160;BME280;27404;52.398;9.646;2022-07-21T01:49:19;100872.25;;;21.37;100.00
8160;BME280;27404;52.398;9.646;2022-07-21T01:51:45;100892.53;;;21.37;100.00
8160;BME280;27404;52.398;9.646;2022-07-21T01:54:12;100922.53;;;21.40;100.00
8160;BME280;27404;52.398;9.646;2022-07-21T01:56:38;100922.16;;;21.47;100.00
8160;BME280;27404;52.398;9.646;2022-07-21T01:59:05;100883.41;;;21.51;100.00
8160;BME280;27404;52.398;9.646;2022-07-21T02:01:31;100869.59;;;21.45;100.00
8160;BME280;27404;52.398;9.646;2022-07-21T02:03:58;100846.22;;;21.47;100.00
8160;BME280;27404;52.398;9.646;2022-07-21T02:06:25;100839.75;;;21.51;100.00
8160;BME280;27404;52.398;9.646;2022-07-21T02:08:51;100849.53;;;21.49;100.00
8160;BME280;27404;52.398;9.646;2022-07-21T02:11:18;100867.84;;;21.50;100.00
8160;BME280;27404;52.398;9.646;2022-07-21T02:13:44;100898.25;;;21.46;100.00
8160;BME280;27404;52.398;9.646;2022-07-21T02:16:10;100898.25;;;21.46;100.00
8160;BME280;27404;52.398;9.646;2022-07-21T02:18:36;100876.97;;;21.36;100.00
8160;BME280;27404;52.398;9.646;2022-07-21T02:21:03;100867.66;;;21.27;100.00
8160;BME280;27404;52.398;9.646;2022-07-21T02:23:29;100882.03;;;21.15;100.00
8160;BME280;27404;52.398;9.646;2022-07-21T02:25:55;100886.03;;;21.09;100.00
8160;BME280;27404;52.398;9.646;2022-07-21T02:28:22;100894.34;;;21.09;100.00
8160;BME280;27404;52.398;9.646;2022-07-21T02:30:48;100886.16;;;20.98;100.00
8160;BME280;27404;52.398;9.646;2022-07-21T02:33:14;100888.50;;;20.91;100.00
8160;BME280;27404;52.398;9.646;2022-07-21T02:35:40;100886.16;;;20.98;100.00
8160;BME280;27404;52.398;9.646;2022-07-21T02:38:06;100881.44;;;20.99;100.00
8160;BME280;27404;52.398;9.646;2022-07-21T02:40:32;100890.16;;;20.92;100.00
8160;BME280;27404;52.398;9.646;2022-07-21T02:42:58;100896.31;;;20.89;100.00
8160;BME280;27404;52.398;9.646;2022-07-21T02:45:24;100899.41;;;20.88;100.00
8160;BME280;27404;52.398;9.646;2022-07-21T02:47:58;100908.03;;;20.86;100.00
8160;BME280;27404;52.398;9.646;2022-07-21T02:50:27;100899.78;;;20.81;100.00
8160;BME280;27404;52.398;9.646;2022-07-21T02:52:56;100890.06;;;20.78;100.00
8160;BME280;27404;52.398;9.646;2022-07-21T02:55:22;100879.53;;;20.75;100.00
8160;BME280;27404;52.398;9.646;2022-07-21T02:57:48;100881.25;;;20.71;100.00
8160;BME280;27404;52.398;9.646;2022-07-21T03:00:14;100895.19;;;20.66;100.00
8160;BME280;27404;52.398;9.646;2022-07-21T03:02:40;100903.53;;;20.66;100.00
8160;BME280;27404;52.398;9.646;2022-07-21T03:05:05;100904.97;;;20.63;100.00
8160;BME280;27404;52.398;9.646;2022-07-21T03:07:31;100907.75;;;20.63;100.00
8160;BME280;27404;52.398;9.646;2022-07-21T03:09:56;100890.91;;;20.54;100.00
8160;BME280;27404;52.398;9.646;2022-07-21T03:12:22;100877.00;;;20.54;100.00
8160;BME280;27404;52.398;9.646;2022-07-21T03:14:47;100864.94;;;20.45;100.00
8160;BME280;27404;52.398;9.646;2022-07-21T03:17:13;100866.34;;;20.42;100.00
8160;BME280;27404;52.398;9.646;2022-07-21T03:19:38;100866.34;;;20.42;100.00
8160;BME280;27404;52.398;9.646;2022-07-21T03:22:04;100862.75;;;20.42;100.00
8160;BME280;27404;52.398;9.646;2022-07-21T03:24:29;100852.22;;;20.39;100.00
8160;BME280;27404;52.398;9.646;2022-07-21T03:26:56;100828.38;;;20.38;100.00
8160;BME280;27404;52.398;9.646;2022-07-21T03:29:22;100820.97;;;20.28;100.00
8160;BME280;27404;52.398;9.646;2022-07-21T03:31:48;100810.47;;;20.25;100.00
8160;BME280;27404;52.398;9.646;2022-07-21T03:34:13;100823.00;;;20.22;100.00
8160;BME280;27404;52.398;9.646;2022-07-21T03:36:39;100812.84;;;20.37;100.00
8160;BME280;27404;52.398;9.646;2022-07-21T03:39:05;100798.22;;;20.50;100.00
8160;BME280;27404;52.398;9.646;2022-07-21T03:43:56;100803.13;;;20.34;100.00
8160;BME280;27404;52.398;9.646;2022-07-21T03:46:22;100805.38;;;20.32;100.00
8160;BME280;27404;52.398;9.646;2022-07-21T03:48:47;100833.41;;;20.36;100.00
8160;BME280;27404;52.398;9.646;2022-07-21T03:51:13;100853.50;;;20.47;100.00
8160;BME280;27404;52.398;9.646;2022-07-21T03:53:38;100857.06;;;20.52;100.00
8160;BME280;27404;52.398;9.646;2022-07-21T03:56:04;100872.34;;;20.50;100.00
8160;BME280;27404;52.398;9.646;2022-07-21T03:58:29;100864.56;;;20.52;100.00
8160;BME280;27404;52.398;9.646;2022-07-21T04:00:55;100868.47;;;20.51;100.00
8160;BME280;27404;52.398;9.646;2022-07-21T04:03:20;100851.59;;;20.47;100.00
8160;BME280;27404;52.398;9.646;2022-07-21T04:05:46;100852.19;;;20.44;100.00
8160;BME280;27404;52.398;9.646;2022-07-21T04:08:12;100853.03;;;20.39;100.00
8160;BME280;27404;52.398;9.646;2022-07-21T04:10:40;100854.75;;;20.35;100.00
8160;BME280;27404;52.398;9.646;2022-07-21T04:13:07;100870.06;;;20.33;100.00
8160;BME280;27404;52.398;9.646;2022-07-21T04:15:33;100880.47;;;20.22;100.00
8160;BME280;27404;52.398;9.646;2022-07-21T04:17:59;100877.47;;;20.18;100.00
8160;BME280;27404;52.398;9.646;2022-07-21T04:20:25;100885.19;;;20.21;100.00
8160;BME280;27404;52.398;9.646;2022-07-21T04:22:51;100892.09;;;20.24;100.00
8160;BME280;27404;52.398;9.646;2022-07-21T04:25:18;100890.56;;;20.12;100.00
8160;BME280;27404;52.398;9.646;2022-07-21T04:27:44;100895.06;;;20.08;100.00
8160;BME280;27404;52.398;9.646;2022-07-21T04:30:13;100905.69;;;20.01;100.00
8160;BME280;27404;52.398;9.646;2022-07-21T04:32:39;100912.44;;;19.90;100.00
8160;BME280;27404;52.398;9.646;2022-07-21T04:35:06;100907.22;;;19.83;100.00
8160;BME280;27404;52.398;9.646;2022-07-21T04:37:32;100913.56;;;19.83;100.00
8160;BME280;27404;52.398;9.646;2022-07-21T04:39:57;100932.50;;;19.76;100.00
8160;BME280;27404;52.398;9.646;2022-07-21T04:42:23;100957.50;;;19.71;100.00
8160;BME280;27404;52.398;9.646;2022-07-21T04:44:48;100965.31;;;19.64;100.00
8160;BME280;27404;52.398;9.646;2022-07-21T04:47:14;100966.97;;;19.65;100.00
8160;BME280;27404;52.398;9.646;2022-07-21T04:49:40;100958.47;;;19.56;100.00
8160;BME280;27404;52.398;9.646;2022-07-21T04:52:05;100963.13;;;19.61;100.00
8160;BME280;27404;52.398;9.646;2022-07-21T04:54:31;100967.56;;;19.62;100.00
8160;BME280;27404;52.398;9.646;2022-07-21T04:56:56;100971.44;;;19.61;100.00
8160;BME280;27404;52.398;9.646;2022-07-21T04:59:22;100974.25;;;19.56;100.00
8160;BME280;27404;52.398;9.646;2022-07-21T05:01:47;100975.88;;;19.62;100.00
8160;BME280;27404;52.398;9.646;2022-07-21T05:04:13;100962.31;;;19.60;100.00
8160;BME280;27404;52.398;9.646;2022-07-21T05:06:38;100970.78;;;19.74;100.00
8160;BME280;27404;52.398;9.646;2022-07-21T05:09:04;100972.75;;;19.74;100.00
8160;BME280;27404;52.398;9.646;2022-07-21T05:11:29;100976.00;;;19.86;100.00
8160;BME280;27404;52.398;9.646;2022-07-21T05:13:55;100969.81;;;19.94;100.00
8160;BME280;27404;52.398;9.646;2022-07-21T05:16:21;100970.94;;;19.93;100.00
8160;BME280;27404;52.398;9.646;2022-07-21T05:18:47;100963.47;;;19.94;100.00
8160;BME280;27404;52.398;9.646;2022-07-21T05:21:12;100962.38;;;19.90;100.00
8160;BME280;27404;52.398;9.646;2022-07-21T05:23:38;100962.94;;;19.87;100.00
8160;BME280;27404;52.398;9.646;2022-07-21T05:26:03;100955.41;;;19.92;100.00
8160;BME280;27404;52.398;9.646;2022-07-21T05:28:29;100961.75;;;19.98;100.00
8160;BME280;27404;52.398;9.646;2022-07-21T05:30:54;100965.88;;;20.01;100.00
8160;BME280;27404;52.398;9.646;2022-07-21T05:33:20;100968.47;;;19.92;100.00
8160;BME280;27404;52.398;9.646;2022-07-21T05:35:45;100962.06;;;19.91;100.00
8160;BME280;27404;52.398;9.646;2022-07-21T05:38:11;100959.31;;;19.91;100.00
8160;BME280;27404;52.398;9.646;2022-07-21T05:40:36;100951.19;;;20.00;100.00
8160;BME280;27404;52.398;9.646;2022-07-21T05:43:02;100954.72;;;20.06;100.00
8160;BME280;27404;52.398;9.646;2022-07-21T05:45:27;100960.19;;;20.16;100.00
8160;BME280;27404;52.398;9.646;2022-07-21T05:47:53;100968.94;;;20.29;100.00
8160;BME280;27404;52.398;9.646;2022-07-21T05:50:18;100962.75;;;20.37;100.00
8160;BME280;27404;52.398;9.646;2022-07-21T05:52:44;100969.97;;;20.38;100.00
8160;BME280;27404;52.398;9.646;2022-07-21T05:55:09;100976.00;;;20.45;100.00
8160;BME280;27404;52.398;9.646;2022-07-21T05:57:36;100982.38;;;20.46;100.00
8160;BME280;27404;52.398;9.646;2022-07-21T06:00:03;100990.81;;;20.60;100.00
8160;BME280;27404;52.398;9.646;2022-07-21T06:02:28;100998.56;;;20.63;100.00
8160;BME280;27404;52.398;9.646;2022-07-21T06:04:56;100997.75;;;20.62;100.00
8160;BME280;27404;52.398;9.646;2022-07-21T06:07:22;101000.47;;;20.67;100.00
8160;BME280;27404;52.398;9.646;2022-07-21T06:09:48;101005.00;;;20.58;100.00
8160;BME280;27404;52.398;9.646;2022-07-21T06:12:13;100999.41;;;20.63;100.00
8160;BME280;27404;52.398;9.646;2022-07-21T06:14:39;101012.75;;;20.61;100.00
8160;BME280;27404;52.398;9.646;2022-07-21T06:17:04;101000.84;;;20.55;100.00
8160;BME280;27404;52.398;9.646;2022-07-21T06:19:30;101009.72;;;20.57;100.00
8160;BME280;27404;52.398;9.646;2022-07-21T06:21:56;101003.84;;;20.64;100.00
8160;BME280;27404;52.398;9.646;2022-07-21T06:24:22;101009.63;;;20.68;100.00
8160;BME280;27404;52.398;9.646;2022-07-21T06:26:48;101015.13;;;20.73;100.00
8160;BME280;27404;52.398;9.646;2022-07-21T06:29:14;101022.03;;;20.81;100.00
8160;BME280;27404;52.398;9.646;2022-07-21T06:31:39;101018.50;;;20.70;100.00
8160;BME280;27404;52.398;9.646;2022-07-21T06:34:05;101033.50;;;20.69;100.00
8160;BME280;27404;52.398;9.646;2022-07-21T06:36:31;101033.81;;;20.67;100.00
8160;BME280;27404;52.398;9.646;2022-07-21T06:38:56;101037.81;;;20.56;100.00
8160;BME280;27404;52.398;9.646;2022-07-21T06:41:22;101034.81;;;20.52;100.00
8160;BME280;27404;52.398;9.646;2022-07-21T06:43:47;101028.94;;;20.54;100.00
8160;BME280;27404;52.398;9.646;2022-07-21T06:46:12;101032.84;;;20.53;100.00
8160;BME280;27404;52.398;9.646;2022-07-21T06:48:38;101031.72;;;20.54;100.00
8160;BME280;27404;52.398;9.646;2022-07-21T06:51:03;101030.06;;;20.53;100.00
8160;BME280;27404;52.398;9.646;2022-07-21T06:53:29;101031.34;;;20.61;100.00
8160;BME280;27404;52.398;9.646;2022-07-21T06:55:54;101032.97;;;20.67;100.00
8160;BME280;27404;52.398;9.646;2022-07-21T06:58:22;101037.44;;;20.63;100.00
8160;BME280;27404;52.398;9.646;2022-07-21T07:00:48;101038.88;;;20.60;100.00
8160;BME280;27404;52.398;9.646;2022-07-21T07:03:15;101033.75;;;20.73;100.00
8160;BME280;27404;52.398;9.646;2022-07-21T07:05:42;101029.50;;;20.80;100.00
8160;BME280;27404;52.398;9.646;2022-07-21T07:08:08;101026.75;;;20.80;100.00
8160;BME280;27404;52.398;9.646;2022-07-21T07:10:34;101022.78;;;20.86;100.00
8160;BME280;27404;52.398;9.646;2022-07-21T07:12:59;101031.53;;;20.99;100.00
8160;BME280;27404;52.398;9.646;2022-07-21T07:15:26;101035.53;;;21.12;100.00
8160;BME280;27404;52.398;9.646;2022-07-21T07:17:52;101035.31;;;21.08;100.00
8160;BME280;27404;52.398;9.646;2022-07-21T07:20:18;101043.66;;;21.08;100.00
8160;BME280;27404;52.398;9.646;2022-07-21T07:22:44;101044.59;;;20.98;100.00
8160;BME280;27404;52.398;9.646;2022-07-21T07:25:10;101043.53;;;20.94;100.00
8160;BME280;27404;52.398;9.646;2022-07-21T07:27:36;101046.88;;;20.91;100.00
8160;BME280;27404;52.398;9.646;2022-07-21T07:30:03;101045.00;;;20.86;100.00
8160;BME280;27404;52.398;9.646;2022-07-21T07:32:29;101051.50;;;21.01;100.00
8160;BME280;27404;52.398;9.646;2022-07-21T07:34:54;101051.78;;;20.99;100.00
8160;BME280;27404;52.398;9.646;2022-07-21T07:37:20;101050.72;;;20.95;100.00
8160;BME280;27404;52.398;9.646;2022-07-21T07:39:45;101050.13;;;20.74;100.00
8160;BME280;27404;52.398;9.646;2022-07-21T07:42:11;101049.59;;;20.42;100.00
8160;BME280;27404;52.398;9.646;2022-07-21T07:44:36;101058.56;;;20.34;100.00
8160;BME280;27404;52.398;9.646;2022-07-21T07:47:02;101058.66;;;20.24;100.00
8160;BME280;27404;52.398;9.646;2022-07-21T07:49:29;101053.66;;;20.21;100.00
8160;BME280;27404;52.398;9.646;2022-07-21T07:51:56;101066.81;;;20.10;100.00
8160;BME280;27404;52.398;9.646;2022-07-21T07:54:21;101059.91;;;20.07;100.00
8160;BME280;27404;52.398;9.646;2022-07-21T07:56:47;101059.84;;;20.18;100.00
8160;BME280;27404;52.398;9.646;2022-07-21T07:59:13;101063.25;;;20.39;100.00
8160;BME280;27404;52.398;9.646;2022-07-21T08:01:38;101067.78;;;20.59;100.00
8160;BME280;27404;52.398;9.646;2022-07-21T08:04:04;101064.63;;;20.95;100.00
8160;BME280;27404;52.398;9.646;2022-07-21T08:06:30;101074.50;;;21.74;100.00
8160;BME280;27404;52.398;9.646;2022-07-21T08:08:55;101080.19;;;22.36;100.00
8160;BME280;27404;52.398;9.646;2022-07-21T08:11:21;101081.09;;;22.31;100.00
8160;BME280;27404;52.398;9.646;2022-07-21T08:13:47;101078.31;;;22.31;100.00
8160;BME280;27404;52.398;9.646;2022-07-21T08:16:12;101088.44;;;22.08;100.00
8160;BME280;27404;52.398;9.646;2022-07-21T08:18:42;101083.72;;;22.08;100.00
8160;BME280;27404;52.398;9.646;2022-07-21T08:21:08;101086.69;;;22.64;100.00
8160;BME280;27404;52.398;9.646;2022-07-21T08:23:34;101081.53;;;22.71;99.35
8160;BME280;27404;52.398;9.646;2022-07-21T08:26:00;101095.19;;;23.01;97.79
8160;BME280;27404;52.398;9.646;2022-07-21T08:28:25;101097.56;;;22.80;97.61
8160;BME280;27404;52.398;9.646;2022-07-21T08:30:51;101099.50;;;22.93;96.17
8160;BME280;27404;52.398;9.646;2022-07-21T08:33:16;101093.34;;;23.10;95.67
8160;BME280;27404;52.398;9.646;2022-07-21T08:35:42;101102.53;;;23.39;92.12
8160;BME280;27404;52.398;9.646;2022-07-21T08:38:09;101101.19;;;24.01;88.28
8160;BME280;27404;52.398;9.646;2022-07-21T08:40:38;101102.84;;;24.02;85.71
8160;BME280;27404;52.398;9.646;2022-07-21T08:43:05;101098.53;;;23.81;86.52
8160;BME280;27404;52.398;9.646;2022-07-21T08:45:31;101098.88;;;23.52;88.98
8160;BME280;27404;52.398;9.646;2022-07-21T08:47:58;101095.94;;;23.34;89.31
8160;BME280;27404;52.398;9.646;2022-07-21T08:50:30;101097.28;;;23.23;89.97
8160;BME280;27404;52.398;9.646;2022-07-21T08:52:55;101094.88;;;23.02;91.50
8160;BME280;27404;52.398;9.646;2022-07-21T08:55:22;101103.34;;;23.11;92.03
8160;BME280;27404;52.398;9.646;2022-07-21T08:57:48;101106.75;;;22.94;92.44
8160;BME280;27404;52.398;9.646;2022-07-21T09:00:15;101103.66;;;22.82;92.65
8160;BME280;27404;52.398;9.646;2022-07-21T09:02:41;101104.38;;;22.87;94.58
8160;BME280;27404;52.398;9.646;2022-07-21T09:05:08;101104.59;;;23.05;93.17
8160;BME280;27404;52.398;9.646;2022-07-21T09:07:54;101107.38;;;23.05;93.36
8160;BME280;27404;52.398;9.646;2022-07-21T09:10:22;101098.50;;;23.45;90.88
8160;BME280;27404;52.398;9.646;2022-07-21T09:12:53;101099.94;;;23.42;89.78
8160;BME280;27404;52.398;9.646;2022-07-21T09:15:21;101097.19;;;23.28;88.56
8160;BME280;27404;52.398;9.646;2022-07-21T09:20:34;101094.53;;;22.62;92.23
8160;BME280;27404;52.398;9.646;2022-07-21T09:23:06;101099.50;;;22.65;92.63
8160;BME280;27404;52.398;9.646;2022-07-21T09:28:28;101101.91;;;22.00;93.92
8160;BME280;27404;52.398;9.646;2022-07-21T09:31:06;101097.81;;;21.79;95.68
8160;BME280;27404;52.398;9.646;2022-07-21T09:38:39;101091.84;;;21.66;97.85
8160;BME280;27404;52.398;9.646;2022-07-21T09:41:21;101103.38;;;21.54;99.21
8160;BME280;27404;52.398;9.646;2022-07-21T09:43:50;101103.59;;;21.63;98.90
8160;BME280;27404;52.398;9.646;2022-07-21T09:46:19;101090.81;;;21.62;98.75
8160;BME280;27404;52.398;9.646;2022-07-21T09:48:47;101094.19;;;21.78;98.19
8160;BME280;27404;52.398;9.646;2022-07-21T09:53:58;101103.19;;;22.60;93.40
8160;BME280;27404;52.398;9.646;2022-07-21T09:56:27;101109.84;;;23.06;89.92
8160;BME280;27404;52.398;9.646;2022-07-21T09:58:55;101110.03;;;23.52;87.27
8160;BME280;27404;52.398;9.646;2022-07-21T10:01:22;101098.88;;;23.66;86.14
8160;BME280;27404;52.398;9.646;2022-07-21T10:03:49;101108.28;;;23.56;87.07
8160;BME280;27404;52.398;9.646;2022-07-21T10:06:16;101109.38;;;23.83;85.19
8160;BME280;27404;52.398;9.646;2022-07-21T10:08:43;101099.97;;;24.38;80.25
8160;BME280;27404;52.398;9.646;2022-07-21T10:11:10;101099.44;;;24.91;77.70
8160;BME280;27404;52.398;9.646;2022-07-21T10:13:37;101111.63;;;25.35;72.39
8160;BME280;27404;52.398;9.646;2022-07-21T10:16:03;101112.00;;;25.02;71.98
8160;BME280;27404;52.398;9.646;2022-07-21T10:22:10;101093.31;;;25.20;69.80
8160;BME280;27404;52.398;9.646;2022-07-21T10:24:29;101095.38;;;25.46;69.92
8160;BME280;27404;52.398;9.646;2022-07-21T10:27:06;101093.94;;;25.84;65.52
8160;BME280;27404;52.398;9.646;2022-07-21T10:32:19;101093.44;;;25.99;64.06
8160;BME280;27404;52.398;9.646;2022-07-21T10:34:45;101086.03;;;25.86;63.07
8160;BME280;27404;52.398;9.646;2022-07-21T10:37:19;101088.19;;;25.89;65.59
8160;BME280;27404;52.398;9.646;2022-07-21T10:39:57;101082.06;;;26.31;63.30
8160;BME280;27404;52.398;9.646;2022-07-21T10:42:22;101085.56;;;26.75;61.37
8160;BME280;27404;52.398;9.646;2022-07-21T10:44:48;101077.94;;;26.94;56.18
8160;BME280;27404;52.398;9.646;2022-07-21T10:47:19;101078.81;;;27.15;56.70
8160;BME280;27404;52.398;9.646;2022-07-21T10:49:50;101073.59;;;27.05;56.01
8160;BME280;27404;52.398;9.646;2022-07-21T10:55:20;101063.94;;;26.11;59.11
8160;BME280;27404;52.398;9.646;2022-07-21T10:58:15;101069.53;;;26.37;59.40
8160;BME280;27404;52.398;9.646;2022-07-21T11:06:21;101056.19;;;27.42;55.59
8160;BME280;27404;52.398;9.646;2022-07-21T11:11:57;101039.31;;;26.90;54.14
8160;BME280;27404;52.398;9.646;2022-07-21T11:14:49;101035.94;;;27.06;51.89
8160;BME280;27404;52.398;9.646;2022-07-21T11:17:29;101037.69;;;26.89;51.29
8160;BME280;27404;52.398;9.646;2022-07-21T11:19:55;101032.56;;;26.92;52.59
8160;BME280;27404;52.398;9.646;2022-07-21T11:22:30;101035.75;;;27.11;53.11
8160;BME280;27404;52.398;9.646;2022-07-21T11:24:58;101038.53;;;26.90;52.87
8160;BME280;27404;52.398;9.646;2022-07-21T11:27:26;101032.63;;;26.83;51.99
8160;BME280;27404;52.398;9.646;2022-07-21T11:29:58;101036.38;;;26.39;52.71
8160;BME280;27404;52.398;9.646;2022-07-21T11:32:23;101027.63;;;26.50;52.50
8160;BME280;27404;52.398;9.646;2022-07-21T11:34:52;101030.88;;;26.99;51.29
8160;BME280;27404;52.398;9.646;2022-07-21T11:39:54;101018.34;;;27.69;47.03
8160;BME280;27404;52.398;9.646;2022-07-21T11:42:20;101021.31;;;27.73;46.52
8160;BME280;27404;52.398;9.646;2022-07-21T11:44:45;101022.38;;;27.81;45.10
8160;BME280;27404;52.398;9.646;2022-07-21T11:47:13;101011.75;;;27.86;45.31
8160;BME280;27404;52.398;9.646;2022-07-21T11:49:40;101014.59;;;27.99;45.50
8160;BME280;27404;52.398;9.646;2022-07-21T11:52:11;101016.00;;;28.14;44.86
8160;BME280;27404;52.398;9.646;2022-07-21T11:54:48;101018.19;;;27.87;43.91
8160;BME280;27404;52.398;9.646;2022-07-21T11:57:16;101015.34;;;27.53;43.77
8160;BME280;27404;52.398;9.646;2022-07-21T11:59:43;101009.59;;;27.71;44.05
8160;BME280;27404;52.398;9.646;2022-07-21T12:02:19;101002.53;;;26.92;44.22
8160;BME280;27404;52.398;9.646;2022-07-21T12:04:46;101004.34;;;27.18;45.61
8160;BME280;27404;52.398;9.646;2022-07-21T12:07:21;101002.44;;;27.10;45.76
8160;BME280;27404;52.398;9.646;2022-07-21T12:09:54;101007.38;;;26.83;46.35
8160;BME280;27404;52.398;9.646;2022-07-21T12:12:38;101005.16;;;26.58;47.48
8160;BME280;27404;52.398;9.646;2022-07-21T12:15:25;101000.81;;;27.00;46.42
8160;BME280;27404;52.398;9.646;2022-07-21T12:18:01;101010.88;;;27.01;45.20
8160;BME280;27404;52.398;9.646;2022-07-21T12:20:29;101003.88;;;27.16;45.08
8160;BME280;27404;52.398;9.646;2022-07-21T12:22:56;101013.03;;;27.04;47.94
8160;BME280;27404;52.398;9.646;2022-07-21T12:25:36;101011.69;;;26.71;63.03
8160;BME280;27404;52.398;9.646;2022-07-21T12:28:04;101012.69;;;26.28;65.51
8160;BME280;27404;52.398;9.646;2022-07-21T12:33:14;101019.94;;;26.20;64.16
8160;BME280;27404;52.398;9.646;2022-07-21T12:35:45;101025.59;;;25.50;66.56
8160;BME280;27404;52.398;9.646;2022-07-21T12:38:21;101020.91;;;25.27;67.78
8160;BME280;27404;52.398;9.646;2022-07-21T12:40:55;101032.44;;;25.17;71.92
8160;BME280;27404;52.398;9.646;2022-07-21T12:43:22;101040.16;;;25.20;70.69
8160;BME280;27404;52.398;9.646;2022-07-21T12:46:14;101040.28;;;25.06;71.28
8160;BME280;27404;52.398;9.646;2022-07-21T12:48:39;101048.44;;;24.76;71.05
8160;BME280;27404;52.398;9.646;2022-07-21T12:53:52;101074.13;;;23.08;93.11
8160;BME280;27404;52.398;9.646;2022-07-21T12:58:46;101083.03;;;21.97;100.00
8160;BME280;27404;52.398;9.646;2022-07-21T13:01:14;101083.81;;;21.40;100.00
8160;BME280;27404;52.398;9.646;2022-07-21T13:03:40;101075.03;;;21.09;100.00
8160;BME280;27404;52.398;9.646;2022-07-21T13:06:06;101071.31;;;20.65;100.00
8160;BME280;27404;52.398;9.646;2022-07-21T13:08:33;101075.97;;;20.45;100.00
8160;BME280;27404;52.398;9.646;2022-07-21T13:11:00;101091.78;;;20.45;100.00
8160;BME280;27404;52.398;9.646;2022-07-21T13:13:26;101101.94;;;20.25;100.00
8160;BME280;27404;52.398;9.646;2022-07-21T13:15:53;101095.97;;;20.12;100.00
8160;BME280;27404;52.398;9.646;2022-07-21T13:18:19;101110.69;;;20.08;100.00
8160;BME280;27404;52.398;9.646;2022-07-21T13:20:45;101100.91;;;19.71;100.00
8160;BME280;27404;52.398;9.646;2022-07-21T13:23:10;101084.59;;;19.59;100.00
8160;BME280;27404;52.398;9.646;2022-07-21T13:25:36;101073.72;;;19.17;100.00
8160;BME280;27404;52.398;9.646;2022-07-21T13:28:02;101063.22;;;19.04;100.00
8160;BME280;27404;52.398;9.646;2022-07-21T13:30:28;101048.84;;;19.02;100.00
8160;BME280;27404;52.398;9.646;2022-07-21T13:32:54;101044.69;;;19.04;100.00
8160;BME280;27404;52.398;9.646;2022-07-21T13:35:19;101038.28;;;19.09;100.00
8160;BME280;27404;52.398;9.646;2022-07-21T13:37:45;101048.66;;;19.43;100.00
8160;BME280;27404;52.398;9.646;2022-07-21T13:40:11;101041.72;;;19.91;100.00